sensor_id;sensor_type;location;lat;lon;timestamp;pressure;altitude;pressure_sealevel;temperature;humidity
16030;BME280;34770;49.272;11.070;2023-02-12T00:01:37;99650.38;;;2.25;100.00
16030;BME280;34770;49.272;11.070;2023-02-12T00:04:03;99658.16;;;2.33;100.00
16030;BME280;34770;49.272;11.070;2023-02-12T00:06:28;99663.56;;;2.28;100.00
16030;BME280;34770;49.272;11.070;2023-02-12T00:08:55;99621.53;;;2.05;100.00
16030;BME280;34770;49.272;11.070;2023-02-12T00:11:26;99672.72;;;2.33;100.00
16030;BME280;34770;49.272;11.070;2023-02-12T00:13:53;99662.81;;;2.32;100.00
16030;BME280;34770;49.272;11.070;2023-02-12T00:16:22;99649.44;;;2.19;100.00
16030;BME280;34770;49.272;11.070;2023-02-12T00:18:50;99661.09;;;2.26;100.00
16030;BME280;34770;49.272;11.070;2023-02-12T00:21:16;99657.53;;;2.26;100.00
16030;BME280;34770;49.272;11.070;2023-02-12T00:23:42;99632.59;;;2.10;100.00
16030;BME280;34770;49.272;11.070;2023-02-12T00:26:11;99648.88;;;2.17;100.00
16030;BME280;34770;49.272;11.070;2023-02-12T00:28:37;99651.94;;;2.20;100.00
16030;BME280;34770;49.272;11.070;2023-02-12T00:31:11;99652.03;;;2.26;100.00
16030;BME280;34770;49.272;11.070;2023-02-12T00:33:37;99653.09;;;2.25;100.00
16030;BME280;34770;49.272;11.070;2023-02-12T00:36:04;99631.69;;;2.04;100.00
16030;BME280;34770;49.272;11.070;2023-02-12T00:38:29;99651.38;;;2.18;100.00
16030;BME280;34770;49.272;11.070;2023-02-12T00:40:55;99631.19;;;2.07;100.00
16030;BME280;34770;49.272;11.070;2023-02-12T00:43:21;99622.84;;;2.02;100.00
16030;BME280;34770;49.272;11.070;2023-02-12T00:45:46;99647.78;;;2.18;100.00
16030;BME280;34770;49.272;11.070;2023-02-12T00:48:13;99658.03;;;2.22;100.00
16030;BME280;34770;49.272;11.070;2023-02-12T00:50:39;99654.94;;;2.19;100.00
16030;BME280;34770;49.272;11.070;2023-02-12T00:53:07;99654.38;;;2.17;100.00
16030;BME280;34770;49.272;11.070;2023-02-12T00:55:33;99656.97;;;2.06;100.00
16030;BME280;34770;49.272;11.070;2023-02-12T00:57:59;99655.66;;;2.09;100.00
16030;BME280;34770;49.272;11.070;2023-02-12T01:00:25;99664.00;;;1.97;100.00
16030;BME280;34770;49.272;11.070;2023-02-12T01:02:50;99668.47;;;2.03;100.00
16030;BME280;34770;49.272;11.070;2023-02-12T01:05:16;99661.44;;;1.90;100.00
16030;BME280;34770;49.272;11.070;2023-02-12T01:07:42;99660.75;;;2.00;100.00
16030;BME280;34770;49.272;11.070;2023-02-12T01:10:08;99662.16;;;2.03;100.00
16030;BME280;34770;49.272;11.070;2023-02-12T01:12:33;99646.69;;;1.97;100.00
16030;BME280;34770;49.272;11.070;2023-02-12T01:14:59;99652.41;;;1.95;100.00
16030;BME280;34770;49.272;11.070;2023-02-12T01:17:25;99673.97;;;2.03;100.00
16030;BME280;34770;49.272;11.070;2023-02-12T01:19:56;99675.88;;;2.03;100.00
16030;BME280;34770;49.272;11.070;2023-02-12T01:22:22;99675.13;;;2.07;100.00
16030;BME280;34770;49.272;11.070;2023-02-12T01:24:48;99645.19;;;1.89;100.00
16030;BME280;34770;49.272;11.070;2023-02-12T01:27:14;99651.97;;;2.03;100.00
16030;BME280;34770;49.272;11.070;2023-02-12T01:29:40;99663.50;;;2.00;100.00
16030;BME280;34770;49.272;11.070;2023-02-12T01:32:09;99659.78;;;2.12;100.00
16030;BME280;34770;49.272;11.070;2023-02-12T01:34:35;99667.78;;;2.13;100.00
16030;BME280;34770;49.272;11.070;2023-02-12T01:37:00;99664.72;;;2.10;100.00
16030;BME280;34770;49.272;11.070;2023-02-12T01:39:26;99673.53;;;2.12;100.00
16030;BME280;34770;49.272;11.070;2023-02-12T01:41:51;99664.47;;;2.11;100.00
16030;BME280;34770;49.272;11.070;2023-02-12T01:44:22;99668.38;;;2.15;100.00
16030;BME280;34770;49.272;11.070;2023-02-12T01:46:56;99662.53;;;2.12;100.00
16030;BME280;34770;49.272;11.070;2023-02-12T01:49:43;99662.22;;;2.08;100.00
16030;BME280;34770;49.272;11.070;2023-02-12T01:54:40;99653.72;;;2.10;100.00
16030;BME280;34770;49.272;11.070;2023-02-12T01:57:07;99657.09;;;2.17;100.00
16030;BME280;34770;49.272;11.070;2023-02-12T01:59:35;99631.56;;;1.94;100.00
16030;BME280;34770;49.272;11.070;2023-02-12T02:02:02;99662.81;;;2.10;100.00
16030;BME280;34770;49.272;11.070;2023-02-12T02:04:29;99663.13;;;2.14;100.00
16030;BME280;34770;49.272;11.070;2023-02-12T02:06:59;99641.00;;;2.03;100.00
16030;BME280;34770;49.272;11.070;2023-02-12T02:09:26;99662.75;;;2.05;100.00
16030;BME280;34770;49.272;11.070;2023-02-12T02:11:52;99650.41;;;2.07;100.00
16030;BME280;34770;49.272;11.070;2023-02-12T02:14:37;99640.19;;;2.03;100.00
16030;BME280;34770;49.272;11.070;2023-02-12T02:28:26;99656.34;;;1.99;100.00
16030;BME280;34770;49.272;11.070;2023-02-12T02:31:31;99657.34;;;1.93;100.00
16030;BME280;34770;49.272;11.070;2023-02-12T02:34:15;99664.34;;;1.84;100.00
16030;BME280;34770;49.272;11.070;2023-02-12T02:36:47;99667.63;;;1.81;100.00
16030;BME280;34770;49.272;11.070;2023-02-12T02:42:09;99664.50;;;1.94;100.00
16030;BME280;34770;49.272;11.070;2023-02-12T02:44:43;99648.53;;;1.91;100.00
16030;BME280;34770;49.272;11.070;2023-02-12T02:47:13;99667.25;;;1.94;100.00
16030;BME280;34770;49.272;11.070;2023-02-12T02:49:46;99667.25;;;1.94;100.00
16030;BME280;34770;49.272;11.070;2023-02-12T02:52:18;99648.78;;;1.89;100.00
16030;BME280;34770;49.272;11.070;2023-02-12T02:54:48;99655.03;;;1.85;100.00
16030;BME280;34770;49.272;11.070;2023-02-12T02:57:29;99660.53;;;1.85;100.00
16030;BME280;34770;49.272;11.070;2023-02-12T03:00:13;99674.56;;;1.88;100.00
16030;BME280;34770;49.272;11.070;2023-02-12T03:02:43;99673.66;;;1.83;100.00
16030;BME280;34770;49.272;11.070;2023-02-12T03:05:36;99651.13;;;1.81;100.00
16030;BME280;34770;49.272;11.070;2023-02-12T03:08:11;99658.19;;;1.77;100.00
16030;BME280;34770;49.272;11.070;2023-02-12T03:10:57;99661.53;;;1.79;100.00
16030;BME280;34770;49.272;11.070;2023-02-12T03:13:29;99680.06;;;1.88;100.00
16030;BME280;34770;49.272;11.070;2023-02-12T03:16:03;99681.47;;;1.91;100.00
16030;BME280;34770;49.272;11.070;2023-02-12T03:18:45;99670.97;;;1.88;100.00
16030;BME280;34770;49.272;11.070;2023-02-12T03:21:19;99666.50;;;1.82;100.00
16030;BME280;34770;49.272;11.070;2023-02-12T03:23:56;99654.03;;;1.74;100.00
16030;BME280;34770;49.272;11.070;2023-02-12T03:26:32;99673.53;;;1.72;100.00
16030;BME280;34770;49.272;11.070;2023-02-12T03:29:02;99683.50;;;1.79;100.00
16030;BME280;34770;49.272;11.070;2023-02-12T03:31:35;99652.91;;;1.70;100.00
16030;BME280;34770;49.272;11.070;2023-02-12T03:34:10;99692.66;;;1.84;100.00
16030;BME280;34770;49.272;11.070;2023-02-12T03:48:01;99704.19;;;2.03;100.00
16030;BME280;34770;49.272;11.070;2023-02-12T03:50:38;99697.69;;;1.92;100.00
16030;BME280;34770;49.272;11.070;2023-02-12T03:53:05;99696.94;;;1.97;100.00
16030;BME280;34770;49.272;11.070;2023-02-12T03:55:33;99702.38;;;1.92;100.00
16030;BME280;34770;49.272;11.070;2023-02-12T03:58:02;99678.81;;;1.79;100.00
16030;BME280;34770;49.272;11.070;2023-02-12T04:00:28;99696.16;;;1.80;100.00
16030;BME280;34770;49.272;11.070;2023-02-12T04:02:53;99712.69;;;1.85;100.00
16030;BME280;34770;49.272;11.070;2023-02-12T04:05:28;99704.38;;;1.80;100.00
16030;BME280;34770;49.272;11.070;2023-02-12T04:07:55;99715.44;;;1.85;100.00
16030;BME280;34770;49.272;11.070;2023-02-12T04:18:52;99699.78;;;1.68;100.00
16030;BME280;34770;49.272;11.070;2023-02-12T04:26:28;99715.34;;;1.97;100.00
16030;BME280;34770;49.272;11.070;2023-02-12T04:29:35;99709.53;;;1.93;100.00
16030;BME280;34770;49.272;11.070;2023-02-12T04:34:38;99700.13;;;1.72;100.00
16030;BME280;34770;49.272;11.070;2023-02-12T04:37:21;99718.44;;;1.83;100.00
16030;BME280;34770;49.272;11.070;2023-02-12T04:39:48;99720.34;;;1.83;100.00
16030;BME280;34770;49.272;11.070;2023-02-12T04:42:14;99705.38;;;1.73;100.00
16030;BME280;34770;49.272;11.070;2023-02-12T04:44:42;99716.03;;;1.87;100.00
16030;BME280;34770;49.272;11.070;2023-02-12T04:47:13;99710.22;;;1.83;100.00
16030;BME280;34770;49.272;11.070;2023-02-12T04:49:38;99700.22;;;1.77;100.00
16030;BME280;34770;49.272;11.070;2023-02-12T04:52:04;99707.13;;;1.80;100.00
16030;BME280;34770;49.272;11.070;2023-02-12T04:54:29;99718.19;;;1.85;100.00
16030;BME280;34770;49.272;11.070;2023-02-12T04:56:55;99700.31;;;1.82;100.00
16030;BME280;34770;49.272;11.070;2023-02-12T04:59:20;99714.44;;;1.91;100.00
16030;BME280;34770;49.272;11.070;2023-02-12T05:01:46;99699.47;;;1.82;100.00
16030;BME280;34770;49.272;11.070;2023-02-12T05:04:13;99698.63;;;1.81;100.00
16030;BME280;34770;49.272;11.070;2023-02-12T05:06:40;99713.28;;;1.87;100.00
16030;BME280;34770;49.272;11.070;2023-02-12T05:09:06;99715.19;;;1.86;100.00
16030;BME280;34770;49.272;11.070;2023-02-12T05:11:32;99699.06;;;1.73;100.00
16030;BME280;34770;49.272;11.070;2023-02-12T05:13:58;99714.28;;;1.81;100.00
16030;BME280;34770;49.272;11.070;2023-02-12T05:16:24;99717.13;;;1.86;100.00
16030;BME280;34770;49.272;11.070;2023-02-12T05:18:49;99725.34;;;1.86;100.00
16030;BME280;34770;49.272;11.070;2023-02-12T05:21:15;99723.75;;;1.90;100.00
16030;BME280;34770;49.272;11.070;2023-02-12T05:23:41;99725.03;;;1.82;100.00
16030;BME280;34770;49.272;11.070;2023-02-12T05:26:11;99720.59;;;1.81;100.00
16030;BME280;34770;49.272;11.070;2023-02-12T05:28:38;99716.78;;;1.82;100.00
16030;BME280;34770;49.272;11.070;2023-02-12T05:31:06;99724.63;;;1.73;100.00
16030;BME280;34770;49.272;11.070;2023-02-12T05:33:32;99716.28;;;1.68;100.00
16030;BME280;34770;49.272;11.070;2023-02-12T05:36:05;99714.38;;;1.69;100.00
16030;BME280;34770;49.272;11.070;2023-02-12T05:38:32;99729.78;;;1.70;100.00
16030;BME280;34770;49.272;11.070;2023-02-12T05:41:03;99726.25;;;1.74;100.00
16030;BME280;34770;49.272;11.070;2023-02-12T05:43:29;99729.19;;;1.85;100.00
16030;BME280;34770;49.272;11.070;2023-02-12T05:45:57;99723.59;;;1.80;100.00
16030;BME280;34770;49.272;11.070;2023-02-12T05:48:23;99744.16;;;1.94;100.00
16030;BME280;34770;49.272;11.070;2023-02-12T05:50:49;99724.75;;;1.84;100.00
16030;BME280;34770;49.272;11.070;2023-02-12T05:53:14;99741.97;;;1.96;100.00
16030;BME280;34770;49.272;11.070;2023-02-12T05:55:40;99754.38;;;1.99;100.00
16030;BME280;34770;49.272;11.070;2023-02-12T05:58:05;99741.41;;;1.94;100.00
16030;BME280;34770;49.272;11.070;2023-02-12T06:00:30;99746.91;;;1.94;100.00
16030;BME280;34770;49.272;11.070;2023-02-12T06:02:56;99756.31;;;1.98;100.00
16030;BME280;34770;49.272;11.070;2023-02-12T06:05:22;99751.88;;;1.97;100.00
16030;BME280;34770;49.272;11.070;2023-02-12T06:07:47;99754.38;;;1.99;100.00
16030;BME280;34770;49.272;11.070;2023-02-12T06:10:12;99759.63;;;2.00;100.00
16030;BME280;34770;49.272;11.070;2023-02-12T06:12:38;99754.97;;;2.01;100.00
16030;BME280;34770;49.272;11.070;2023-02-12T06:15:03;99749.13;;;1.97;100.00
16030;BME280;34770;49.272;11.070;2023-02-12T06:17:29;99750.41;;;1.89;100.00
16030;BME280;34770;49.272;11.070;2023-02-12T06:19:54;99759.19;;;1.91;100.00
16030;BME280;34770;49.272;11.070;2023-02-12T06:22:20;99759.19;;;1.91;100.00
16030;BME280;34770;49.272;11.070;2023-02-12T06:24:45;99752.72;;;1.98;100.00
16030;BME280;34770;49.272;11.070;2023-02-12T06:27:11;99739.97;;;1.91;100.00
16030;BME280;34770;49.272;11.070;2023-02-12T06:29:36;99732.59;;;1.92;100.00
16030;BME280;34770;49.272;11.070;2023-02-12T06:32:02;99741.09;;;1.90;100.00
16030;BME280;34770;49.272;11.070;2023-02-12T06:34:27;99753.06;;;2.01;100.00
16030;BME280;34770;49.272;11.070;2023-02-12T06:36:53;99749.41;;;1.96;100.00
16030;BME280;34770;49.272;11.070;2023-02-12T06:39:18;99759.19;;;1.91;100.00
16030;BME280;34770;49.272;11.070;2023-02-12T06:41:44;99759.03;;;1.98;100.00
16030;BME280;34770;49.272;11.070;2023-02-12T06:44:11;99764.06;;;2.01;100.00
16030;BME280;34770;49.272;11.070;2023-02-12T06:46:36;99765.69;;;2.02;100.00
16030;BME280;34770;49.272;11.070;2023-02-12T06:49:02;99770.63;;;2.00;100.00
16030;BME280;34770;49.272;11.070;2023-02-12T06:51:28;99772.28;;;2.01;100.00
16030;BME280;34770;49.272;11.070;2023-02-12T06:53:54;99766.03;;;1.89;100.00
16030;BME280;34770;49.272;11.070;2023-02-12T06:56:21;99776.00;;;1.95;100.00
16030;BME280;34770;49.272;11.070;2023-02-12T06:58:56;99773.72;;;1.87;100.00
16030;BME280;34770;49.272;11.070;2023-02-12T07:01:24;99782.34;;;1.96;100.00
16030;BME280;34770;49.272;11.070;2023-02-12T07:03:55;99784.03;;;1.97;100.00
16030;BME280;34770;49.272;11.070;2023-02-12T07:06:21;99786.84;;;2.02;100.00
16030;BME280;34770;49.272;11.070;2023-02-12T07:08:47;99787.66;;;2.02;100.00
16030;BME280;34770;49.272;11.070;2023-02-12T07:11:13;99782.19;;;2.02;100.00
16030;BME280;34770;49.272;11.070;2023-02-12T07:13:40;99794.34;;;2.06;100.00
16030;BME280;34770;49.272;11.070;2023-02-12T07:16:08;99787.19;;;2.05;100.00
16030;BME280;34770;49.272;11.070;2023-02-12T07:18:34;99797.69;;;2.09;100.00
16030;BME280;34770;49.272;11.070;2023-02-12T07:21:00;99781.94;;;2.04;100.00
16030;BME280;34770;49.272;11.070;2023-02-12T07:23:26;99793.75;;;2.21;100.00
16030;BME280;34770;49.272;11.070;2023-02-12T07:25:59;99794.66;;;2.27;100.00
16030;BME280;34770;49.272;11.070;2023-02-12T07:28:26;99791.84;;;2.22;100.00
16030;BME280;34770;49.272;11.070;2023-02-12T07:30:51;99799.63;;;2.30;100.00
16030;BME280;34770;49.272;11.070;2023-02-12T07:33:17;99804.66;;;2.33;100.00
16030;BME280;34770;49.272;11.070;2023-02-12T07:35:43;99796.41;;;2.33;100.00
16030;BME280;34770;49.272;11.070;2023-02-12T07:38:09;99790.97;;;2.38;100.00
16030;BME280;34770;49.272;11.070;2023-02-12T07:40:34;99791.31;;;2.42;100.00
16030;BME280;34770;49.272;11.070;2023-02-12T07:42:59;99794.44;;;2.51;100.00
16030;BME280;34770;49.272;11.070;2023-02-12T07:45:25;99803.94;;;2.60;100.00
16030;BME280;34770;49.272;11.070;2023-02-12T07:47:51;99797.41;;;2.66;100.00
16030;BME280;34770;49.272;11.070;2023-02-12T07:50:16;99786.09;;;2.63;100.00
16030;BME280;34770;49.272;11.070;2023-02-12T07:52:42;99803.31;;;2.75;100.00
16030;BME280;34770;49.272;11.070;2023-02-12T07:55:08;99801.13;;;2.77;100.00
16030;BME280;34770;49.272;11.070;2023-02-12T07:57:34;99803.25;;;2.70;100.00
16030;BME280;34770;49.272;11.070;2023-02-12T08:00:00;99813.00;;;2.78;100.00
16030;BME280;34770;49.272;11.070;2023-02-12T08:02:25;99805.63;;;2.83;100.00
16030;BME280;34770;49.272;11.070;2023-02-12T08:04:57;99803.72;;;2.84;100.00
16030;BME280;34770;49.272;11.070;2023-02-12T08:07:23;99803.19;;;2.87;100.00
16030;BME280;34770;49.272;11.070;2023-02-12T08:09:49;99795.00;;;2.92;100.00
16030;BME280;34770;49.272;11.070;2023-02-12T08:12:16;99801.72;;;3.01;100.00
16030;BME280;34770;49.272;11.070;2023-02-12T08:14:41;99791.31;;;3.03;100.00
16030;BME280;34770;49.272;11.070;2023-02-12T08:17:07;99817.09;;;3.19;100.00
16030;BME280;34770;49.272;11.070;2023-02-12T08:19:33;99812.94;;;3.17;100.00
16030;BME280;34770;49.272;11.070;2023-02-12T08:21:59;99817.97;;;3.25;100.00
16030;BME280;34770;49.272;11.070;2023-02-12T08:24:32;99816.94;;;3.31;100.00
16030;BME280;34770;49.272;11.070;2023-02-12T08:26:57;99805.16;;;3.36;100.00
16030;BME280;34770;49.272;11.070;2023-02-12T08:29:30;99810.28;;;3.27;100.00
16030;BME280;34770;49.272;11.070;2023-02-12T08:32:01;99821.28;;;3.49;100.00
16030;BME280;34770;49.272;11.070;2023-02-12T08:34:29;99823.53;;;3.30;100.00
16030;BME280;34770;49.272;11.070;2023-02-12T08:36:56;99820.97;;;3.46;100.00
16030;BME280;34770;49.272;11.070;2023-02-12T08:39:23;99810.00;;;3.51;100.00
16030;BME280;34770;49.272;11.070;2023-02-12T08:41:49;99812.81;;;3.56;100.00
16030;BME280;34770;49.272;11.070;2023-02-12T08:44:15;99817.84;;;3.64;100.00
16030;BME280;34770;49.272;11.070;2023-02-12T08:46:50;99821.69;;;3.63;100.00
16030;BME280;34770;49.272;11.070;2023-02-12T08:49:18;99818.63;;;3.60;100.00
16030;BME280;34770;49.272;11.070;2023-02-12T08:51:46;99819.38;;;3.55;100.00
16030;BME280;34770;49.272;11.070;2023-02-12T08:54:15;99811.28;;;3.71;100.00
16030;BME280;34770;49.272;11.070;2023-02-12T08:56:41;99783.19;;;3.69;100.00
16030;BME280;34770;49.272;11.070;2023-02-12T08:59:10;99815.94;;;3.97;100.00
16030;BME280;34770;49.272;11.070;2023-02-12T09:01:36;99811.63;;;4.07;100.00
16030;BME280;34770;49.272;11.070;2023-02-12T09:04:03;99823.75;;;4.06;100.00
16030;BME280;34770;49.272;11.070;2023-02-12T09:06:31;99826.84;;;4.14;100.00
16030;BME280;34770;49.272;11.070;2023-02-12T09:08:56;99809.03;;;4.27;100.00
16030;BME280;34770;49.272;11.070;2023-02-12T09:11:25;99809.97;;;4.43;100.00
16030;BME280;34770;49.272;11.070;2023-02-12T09:13:58;99810.56;;;4.51;100.00
16030;BME280;34770;49.272;11.070;2023-02-12T09:16:25;99804.59;;;4.64;100.00
16030;BME280;34770;49.272;11.070;2023-02-12T09:18:50;99815.41;;;4.71;100.00
16030;BME280;34770;49.272;11.070;2023-02-12T09:21:18;99817.59;;;4.74;100.00
16030;BME280;34770;49.272;11.070;2023-02-12T09:23:44;99799.44;;;4.83;100.00
16030;BME280;34770;49.272;11.070;2023-02-12T09:26:12;99811.06;;;4.90;100.00
16030;BME280;34770;49.272;11.070;2023-02-12T09:28:40;99809.97;;;4.86;100.00
16030;BME280;34770;49.272;11.070;2023-02-12T09:31:07;99818.91;;;4.61;100.00
16030;BME280;34770;49.272;11.070;2023-02-12T09:33:33;99813.81;;;4.85;100.00
16030;BME280;34770;49.272;11.070;2023-02-12T09:36:04;99816.16;;;5.14;100.00
16030;BME280;34770;49.272;11.070;2023-02-12T09:38:30;99810.16;;;5.38;100.00
16030;BME280;34770;49.272;11.070;2023-02-12T09:46:46;99798.06;;;5.65;100.00
16030;BME280;34770;49.272;11.070;2023-02-12T09:52:02;99812.50;;;5.98;100.00
16030;BME280;34770;49.272;11.070;2023-02-12T09:54:35;99810.28;;;6.00;100.00
16030;BME280;34770;49.272;11.070;2023-02-12T09:57:05;99814.41;;;5.77;100.00
16030;BME280;34770;49.272;11.070;2023-02-12T09:59:37;99814.41;;;5.77;100.00
16030;BME280;34770;49.272;11.070;2023-02-12T10:02:15;99828.25;;;5.92;100.00
16030;BME280;34770;49.272;11.070;2023-02-12T10:04:42;99812.44;;;5.67;100.00
16030;BME280;34770;49.272;11.070;2023-02-12T10:12:18;99810.25;;;5.69;100.00
16030;BME280;34770;49.272;11.070;2023-02-12T10:17:36;99800.25;;;5.52;100.00
16030;BME280;34770;49.272;11.070;2023-02-12T10:23:01;99825.69;;;5.54;100.00
16030;BME280;34770;49.272;11.070;2023-02-12T10:25:55;99838.41;;;5.55;100.00
16030;BME280;34770;49.272;11.070;2023-02-12T10:28:33;99846.94;;;5.54;100.00
16030;BME280;34770;49.272;11.070;2023-02-12T10:31:03;99838.34;;;5.50;100.00
16030;BME280;34770;49.272;11.070;2023-02-12T10:33:38;99843.13;;;5.65;100.00
16030;BME280;34770;49.272;11.070;2023-02-12T10:38:52;99843.38;;;5.58;100.00
16030;BME280;34770;49.272;11.070;2023-02-12T10:41:21;99851.66;;;5.64;100.00
16030;BME280;34770;49.272;11.070;2023-02-12T10:43:48;99845.56;;;5.56;100.00
16030;BME280;34770;49.272;11.070;2023-02-12T10:46:15;99843.38;;;5.58;100.00
16030;BME280;34770;49.272;11.070;2023-02-12T10:48:43;99838.41;;;5.66;100.00
16030;BME280;34770;49.272;11.070;2023-02-12T10:51:42;99840.31;;;5.45;100.00
16030;BME280;34770;49.272;11.070;2023-02-12T10:54:39;99839.22;;;5.51;100.00
16030;BME280;34770;49.272;11.070;2023-02-12T10:57:09;99818.50;;;5.53;100.00
16030;BME280;34770;49.272;11.070;2023-02-12T10:59:37;99820.44;;;5.53;100.00
16030;BME280;34770;49.272;11.070;2023-02-12T11:02:02;99826.81;;;5.69;100.00
16030;BME280;34770;49.272;11.070;2023-02-12T11:04:31;99829.59;;;5.84;100.00
16030;BME280;34770;49.272;11.070;2023-02-12T11:07:04;99830.16;;;5.76;100.00
16030;BME280;34770;49.272;11.070;2023-02-12T11:09:39;99805.81;;;5.78;100.00
16030;BME280;34770;49.272;11.070;2023-02-12T11:12:49;99830.44;;;5.95;100.00
16030;BME280;34770;49.272;11.070;2023-02-12T11:15:16;99822.75;;;6.07;100.00
16030;BME280;34770;49.272;11.070;2023-02-12T11:17:45;99835.19;;;6.00;100.00
16030;BME280;34770;49.272;11.070;2023-02-12T11:20:22;99822.72;;;5.97;100.00
16030;BME280;34770;49.272;11.070;2023-02-12T11:22:51;99829.41;;;6.01;100.00
16030;BME280;34770;49.272;11.070;2023-02-12T11:25:17;99831.88;;;6.13;100.00
16030;BME280;34770;49.272;11.070;2023-02-12T11:27:43;99824.09;;;5.95;100.00
16030;BME280;34770;49.272;11.070;2023-02-12T11:32:34;99831.84;;;5.98;100.00
16030;BME280;34770;49.272;11.070;2023-02-12T11:35:13;99837.34;;;5.93;100.00
16030;BME280;34770;49.272;11.070;2023-02-12T11:37:44;99833.53;;;6.04;100.00
16030;BME280;34770;49.272;11.070;2023-02-12T11:40:22;99829.13;;;6.03;100.00
16030;BME280;34770;49.272;11.070;2023-02-12T11:42:58;99812.81;;;6.01;100.00
16030;BME280;34770;49.272;11.070;2023-02-12T11:45:41;99824.16;;;6.05;100.00
16030;BME280;34770;49.272;11.070;2023-02-12T11:48:21;99825.22;;;6.19;100.00
16030;BME280;34770;49.272;11.070;2023-02-12T11:50:50;99827.72;;;6.26;100.00
16030;BME280;34770;49.272;11.070;2023-02-12T11:53:22;99810.88;;;6.22;100.00
16030;BME280;34770;49.272;11.070;2023-02-12T11:55:55;99816.94;;;6.30;100.00
16030;BME280;34770;49.272;11.070;2023-02-12T11:58:23;99811.66;;;6.54;100.00
16030;BME280;34770;49.272;11.070;2023-02-12T12:04:01;99803.38;;;6.44;100.00
16030;BME280;34770;49.272;11.070;2023-02-12T12:06:45;99810.59;;;6.34;100.00
16030;BME280;34770;49.272;11.070;2023-02-12T12:14:34;99807.19;;;6.84;100.00
16030;BME280;34770;49.272;11.070;2023-02-12T12:17:33;99809.13;;;6.78;100.00
16030;BME280;34770;49.272;11.070;2023-02-12T12:20:22;99807.72;;;6.81;100.00
16030;BME280;34770;49.272;11.070;2023-02-12T12:22:56;99809.16;;;6.58;100.00
16030;BME280;34770;49.272;11.070;2023-02-12T12:25:28;99808.59;;;6.55;100.00
16030;BME280;34770;49.272;11.070;2023-02-12T12:28:43;99806.97;;;6.60;100.00
16030;BME280;34770;49.272;11.070;2023-02-12T12:30:57;99803.63;;;6.63;100.00
16030;BME280;34770;49.272;11.070;2023-02-12T12:39:02;99799.06;;;7.03;100.00
16030;BME280;34770;49.272;11.070;2023-02-12T12:47:47;99794.53;;;7.28;100.00
16030;BME280;34770;49.272;11.070;2023-02-12T12:50:45;99800.00;;;7.43;100.00
16030;BME280;34770;49.272;11.070;2023-02-12T12:53:26;99800.28;;;7.47;100.00
16030;BME280;34770;49.272;11.070;2023-02-12T12:56:13;99790.03;;;7.42;100.00
16030;BME280;34770;49.272;11.070;2023-02-12T13:13:38;99785.69;;;7.26;100.00
16030;BME280;34770;49.272;11.070;2023-02-12T13:18:47;99773.66;;;7.46;100.00
16030;BME280;34770;49.272;11.070;2023-02-12T13:21:24;99780.97;;;7.76;100.00
16030;BME280;34770;49.272;11.070;2023-02-12T13:24:06;99762.00;;;7.89;100.00
16030;BME280;34770;49.272;11.070;2023-02-12T13:34:38;99778.75;;;7.73;100.00
16030;BME280;34770;49.272;11.070;2023-02-12T13:37:05;99771.16;;;8.24;96.56
16030;BME280;34770;49.272;11.070;2023-02-12T13:39:42;99769.53;;;8.76;95.07
16030;BME280;34770;49.272;11.070;2023-02-12T13:42:18;99771.41;;;8.57;94.14
16030;BME280;34770;49.272;11.070;2023-02-12T13:44:56;99775.72;;;8.39;95.36
16030;BME280;34770;49.272;11.070;2023-02-12T13:47:33;99771.78;;;8.74;92.52
16030;BME280;34770;49.272;11.070;2023-02-12T13:55:22;99777.00;;;10.01;83.89
16030;BME280;34770;49.272;11.070;2023-02-12T14:03:24;99761.84;;;9.55;82.92
16030;BME280;34770;49.272;11.070;2023-02-12T14:06:23;99767.41;;;9.55;84.59
16030;BME280;34770;49.272;11.070;2023-02-12T14:08:51;99774.56;;;9.61;85.34
16030;BME280;34770;49.272;11.070;2023-02-12T14:11:21;99773.19;;;9.58;84.16
16030;BME280;34770;49.272;11.070;2023-02-12T14:13:57;99763.59;;;9.51;81.67
16030;BME280;34770;49.272;11.070;2023-02-12T14:21:56;99766.59;;;10.73;80.10
16030;BME280;34770;49.272;11.070;2023-02-12T14:40:48;99743.13;;;9.22;83.88
16030;BME280;34770;49.272;11.070;2023-02-12T14:48:56;99739.22;;;9.81;79.86
16030;BME280;34770;49.272;11.070;2023-02-12T14:51:40;99718.47;;;9.92;80.25
16030;BME280;34770;49.272;11.070;2023-02-12T14:54:18;99736.81;;;11.38;75.06
16030;BME280;34770;49.272;11.070;2023-02-12T14:56:48;99723.09;;;12.01;69.54
16030;BME280;34770;49.272;11.070;2023-02-12T14:59:19;99743.75;;;12.22;68.54
16030;BME280;34770;49.272;11.070;2023-02-12T15:01:48;99737.69;;;12.92;67.21
16030;BME280;34770;49.272;11.070;2023-02-12T15:04:29;99721.22;;;12.82;65.10
16030;BME280;34770;49.272;11.070;2023-02-12T15:06:56;99742.06;;;12.12;65.80
16030;BME280;34770;49.272;11.070;2023-02-12T15:09:32;99732.06;;;13.59;64.61
16030;BME280;34770;49.272;11.070;2023-02-12T15:12:22;99724.34;;;13.47;61.02
16030;BME280;34770;49.272;11.070;2023-02-12T15:17:38;99720.06;;;15.57;56.27
16030;BME280;34770;49.272;11.070;2023-02-12T15:20:25;99715.69;;;16.35;53.13
16030;BME280;34770;49.272;11.070;2023-02-12T15:22:56;99729.34;;;16.58;51.87
16030;BME280;34770;49.272;11.070;2023-02-12T15:25:30;99720.59;;;17.34;50.28
16030;BME280;34770;49.272;11.070;2023-02-12T15:30:41;99712.50;;;17.73;48.06
16030;BME280;34770;49.272;11.070;2023-02-12T15:33:07;99722.91;;;15.90;51.45
16030;BME280;34770;49.272;11.070;2023-02-12T15:35:36;99708.69;;;13.98;57.63
16030;BME280;34770;49.272;11.070;2023-02-12T15:38:04;99704.16;;;13.01;61.44
16030;BME280;34770;49.272;11.070;2023-02-12T15:40:35;99722.97;;;11.46;68.00
16030;BME280;34770;49.272;11.070;2023-02-12T15:43:05;99728.31;;;10.92;71.08
16030;BME280;34770;49.272;11.070;2023-02-12T15:45:33;99720.56;;;10.00;76.41